createdAt,value
2023-07-07T00:00:00.030Z,4.47
2023-07-07T00:02:28.104Z,3.60
2023-07-07T00:04:56.257Z,4.57
2023-07-07T00:07:23.917Z,3.78
2023-07-07T00:09:51.863Z,7.38
2023-07-07T00:12:19.919Z,5.00
2023-07-07T00:14:49.377Z,4.85
2023-07-07T00:17:17.319Z,5.13
2023-07-07T00:19:46.044Z,6.90
2023-07-07T00:22:14.861Z,4.38
2023-07-07T00:24:42.567Z,4.40
2023-07-07T00:27:10.449Z,4.32
2023-07-07T00:29:38.449Z,4.47
2023-07-07T00:32:07.017Z,5.40
2023-07-07T00:34:34.947Z,3.50
2023-07-07T00:37:02.672Z,3.78
2023-07-07T00:39:30.460Z,4.65
2023-07-07T00:42:00.104Z,4.47
2023-07-07T00:45:02.970Z,5.45
2023-07-07T00:47:33.788Z,4.32
2023-07-07T00:50:01.655Z,4.50
2023-07-07T00:52:30.603Z,5.78
2023-07-07T00:54:58.359Z,5.28
2023-07-07T00:57:26.679Z,4.50
2023-07-07T00:59:54.431Z,5.50
2023-07-07T01:02:26.943Z,4.78
2023-07-07T01:04:59.409Z,3.97
2023-07-07T01:07:42.832Z,5.47
2023-07-07T01:10:11.499Z,5.32
2023-07-07T01:12:39.266Z,4.60
2023-07-07T01:15:08.514Z,4.72
2023-07-07T01:17:56.637Z,4.05
2023-07-07T01:21:02.656Z,5.15
2023-07-07T01:23:40.000Z,4.82
2023-07-07T01:26:37.226Z,5.10
2023-07-07T01:29:27.117Z,5.53
2023-07-07T01:32:19.622Z,4.70
2023-07-07T01:34:49.034Z,4.88
2023-07-07T01:37:17.015Z,4.20
2023-07-07T01:39:45.783Z,4.32
2023-07-07T01:42:39.994Z,4.07
2023-07-07T01:45:25.765Z,4.75
2023-07-07T01:48:27.569Z,5.07
2023-07-07T01:50:56.494Z,5.60
2023-07-07T01:53:27.521Z,5.18
2023-07-07T01:55:59.010Z,5.22
2023-07-07T01:58:28.969Z,3.47
2023-07-07T02:00:58.013Z,6.03
2023-07-07T02:03:28.615Z,5.10
2023-07-07T02:05:56.416Z,4.55
2023-07-07T02:08:24.247Z,4.38
2023-07-07T02:10:51.985Z,4.22
2023-07-07T02:13:19.834Z,4.45
2023-07-07T02:15:47.769Z,4.35
2023-07-07T02:18:15.691Z,6.57
2023-07-07T02:20:43.474Z,4.55
2023-07-07T02:23:11.171Z,4.82
2023-07-07T02:25:38.848Z,4.85
2023-07-07T02:28:07.190Z,3.95
2023-07-07T02:30:36.942Z,5.18
2023-07-07T02:33:05.178Z,6.05
2023-07-07T02:35:33.705Z,4.72
2023-07-07T02:38:02.221Z,4.43
2023-07-07T02:40:31.013Z,4.50
2023-07-07T02:42:59.012Z,4.85
2023-07-07T02:45:26.839Z,5.50
2023-07-07T02:47:54.605Z,4.53
2023-07-07T02:50:22.376Z,6.95
2023-07-07T02:52:50.078Z,4.40
2023-07-07T02:55:17.900Z,5.75
2023-07-07T02:57:45.774Z,5.25
2023-07-07T03:00:14.458Z,4.95
2023-07-07T03:02:43.072Z,4.90
2023-07-07T03:05:11.334Z,5.55
2023-07-07T03:07:39.438Z,6.05
2023-07-07T03:10:08.579Z,4.25
2023-07-07T03:12:38.157Z,5.22
2023-07-07T03:15:08.937Z,4.68
2023-07-07T03:17:43.698Z,5.00
2023-07-07T03:20:12.593Z,4.40
2023-07-07T03:22:41.683Z,6.30
2023-07-07T03:25:10.561Z,4.97
2023-07-07T03:27:54.529Z,5.55
2023-07-07T03:30:29.582Z,5.72
2023-07-07T03:33:05.498Z,4.93
2023-07-07T03:35:33.902Z,5.55
2023-07-07T03:38:02.148Z,5.97
2023-07-07T03:40:31.933Z,6.07
2023-07-07T03:43:00.128Z,6.28
2023-07-07T03:45:30.171Z,5.05
2023-07-07T03:48:00.368Z,4.78
2023-07-07T03:50:28.046Z,4.18
2023-07-07T03:52:57.294Z,5.30
2023-07-07T03:55:27.539Z,5.70
2023-07-07T03:57:55.333Z,5.40
2023-07-07T04:00:23.396Z,5.80
2023-07-07T04:02:51.897Z,5.43
2023-07-07T04:05:20.440Z,4.47
2023-07-07T04:07:48.488Z,5.75
2023-07-07T04:10:17.967Z,6.55
2023-07-07T04:12:46.316Z,7.13
2023-07-07T04:15:14.429Z,4.18
2023-07-07T04:17:42.292Z,6.60
2023-07-07T04:20:10.814Z,6.22
2023-07-07T04:22:38.625Z,4.80
2023-07-07T04:25:11.813Z,5.60
2023-07-07T04:27:40.196Z,4.70
2023-07-07T04:30:09.567Z,4.97
2023-07-07T04:32:38.502Z,6.93
2023-07-07T04:35:06.598Z,6.07
2023-07-07T04:37:34.374Z,4.63
2023-07-07T04:40:02.252Z,10.07
2023-07-07T04:42:30.151Z,4.22
2023-07-07T04:44:58.037Z,4.05
2023-07-07T04:47:25.991Z,6.03
2023-07-07T04:49:53.675Z,5.93
2023-07-07T04:52:21.591Z,5.25
2023-07-07T04:54:50.774Z,6.00
2023-07-07T04:57:18.432Z,6.85
2023-07-07T04:59:46.188Z,7.75
2023-07-07T05:02:15.353Z,7.03
2023-07-07T05:04:43.286Z,6.78
2023-07-07T05:07:11.165Z,5.55
2023-07-07T05:09:38.872Z,5.40
2023-07-07T05:12:10.547Z,8.23
2023-07-07T05:14:38.291Z,6.95
2023-07-07T05:17:06.345Z,5.25
2023-07-07T05:19:34.303Z,7.63
2023-07-07T05:22:02.033Z,6.13
2023-07-07T05:24:29.859Z,7.95
2023-07-07T05:26:58.252Z,6.63
2023-07-07T05:29:26.446Z,6.80
2023-07-07T05:31:54.577Z,7.55
2023-07-07T05:34:22.642Z,6.53
2023-07-07T05:36:50.714Z,5.85
2023-07-07T05:39:18.584Z,10.02
2023-07-07T05:41:46.334Z,6.82
2023-07-07T05:44:15.638Z,6.43
2023-07-07T05:46:44.880Z,8.27
2023-07-07T05:49:12.793Z,6.95
2023-07-07T05:51:43.477Z,6.78
2023-07-07T05:54:11.334Z,5.30
2023-07-07T05:56:39.074Z,7.15
2023-07-07T05:59:07.541Z,5.95
2023-07-07T06:01:37.030Z,7.22
2023-07-07T06:04:05.233Z,11.43
2023-07-07T06:06:33.210Z,10.25
2023-07-07T06:09:01.029Z,8.98
2023-07-07T06:11:29.252Z,8.23
2023-07-07T06:13:57.023Z,9.18
2023-07-07T06:16:24.990Z,6.88
2023-07-07T06:18:52.833Z,7.40
2023-07-07T06:21:20.700Z,6.38
2023-07-07T06:23:50.412Z,5.82
2023-07-07T06:26:20.271Z,7.22
2023-07-07T06:28:48.017Z,8.25
2023-07-07T06:31:15.985Z,5.65
2023-07-07T06:33:43.884Z,12.63
2023-07-07T06:36:11.864Z,15.45
2023-07-07T06:38:41.996Z,9.27
2023-07-07T06:41:12.911Z,8.48
2023-07-07T06:43:40.782Z,7.75
2023-07-07T06:46:10.067Z,8.43
2023-07-07T06:48:38.114Z,9.43
2023-07-07T06:51:06.079Z,9.35
2023-07-07T06:53:34.890Z,8.13
2023-07-07T06:56:02.863Z,13.77
2023-07-07T06:58:31.767Z,12.07
2023-07-07T07:00:59.659Z,9.60
2023-07-07T07:03:28.876Z,14.02
2023-07-07T07:05:56.797Z,15.38
2023-07-07T07:08:24.556Z,26.33
2023-07-07T07:10:52.538Z,40.30
2023-07-07T07:13:21.653Z,25.02
2023-07-07T07:15:49.667Z,29.40
2023-07-07T07:18:19.317Z,21.35
2023-07-07T07:20:51.710Z,14.07
2023-07-07T07:23:22.527Z,21.02
2023-07-07T07:25:51.595Z,19.23
2023-07-07T07:28:19.332Z,12.07
2023-07-07T07:30:47.506Z,15.00
2023-07-07T07:33:20.339Z,12.90
2023-07-07T07:35:48.861Z,5.47
2023-07-07T07:38:18.504Z,6.57
2023-07-07T07:40:46.416Z,11.10
2023-07-07T07:43:14.280Z,11.52
2023-07-07T07:45:42.182Z,10.93
2023-07-07T07:48:10.286Z,8.15
2023-07-07T07:50:38.543Z,6.93
2023-07-07T07:53:06.749Z,7.38
2023-07-07T07:55:34.566Z,9.57
2023-07-07T07:58:02.556Z,7.40
2023-07-07T08:00:30.504Z,6.30
2023-07-07T08:02:58.452Z,6.57
2023-07-07T08:05:27.228Z,5.70
2023-07-07T08:07:55.278Z,6.78
2023-07-07T08:10:23.107Z,7.57
2023-07-07T08:12:51.400Z,7.28
2023-07-07T08:15:19.280Z,6.65
2023-07-07T08:17:47.034Z,9.00
2023-07-07T08:20:23.048Z,11.57
2023-07-07T08:22:50.985Z,11.25
2023-07-07T08:25:19.050Z,9.38
2023-07-07T08:30:18.079Z,5.88
2023-07-07T08:32:45.963Z,15.68
2023-07-07T08:35:14.478Z,10.25
2023-07-07T08:37:42.406Z,11.13
2023-07-07T08:40:18.579Z,26.02
2023-07-07T08:42:47.224Z,13.57
2023-07-07T08:45:21.256Z,17.13
2023-07-07T08:47:57.945Z,11.38
2023-07-07T08:50:39.499Z,8.48
2023-07-07T08:53:45.031Z,18.17
2023-07-07T08:56:24.601Z,8.80
2023-07-07T08:58:58.536Z,15.95
2023-07-07T09:01:52.253Z,12.20
2023-07-07T09:04:39.160Z,10.60
2023-07-07T09:07:36.890Z,6.03
2023-07-07T09:10:23.395Z,4.47
2023-07-07T09:12:58.922Z,7.47
2023-07-07T09:15:32.423Z,5.15
2023-07-07T09:18:09.368Z,15.45
2023-07-07T09:20:37.777Z,7.65
2023-07-07T09:23:13.480Z,7.25
2023-07-07T09:25:52.955Z,4.82
2023-07-07T09:28:21.012Z,16.38
2023-07-07T09:30:53.316Z,12.45
2023-07-07T09:33:24.617Z,9.98
2023-07-07T09:36:08.509Z,7.03
2023-07-07T09:38:55.365Z,7.40
2023-07-07T09:41:26.655Z,7.15
2023-07-07T09:44:22.515Z,7.78
2023-07-07T09:47:13.551Z,5.32
2023-07-07T09:50:14.329Z,7.82
2023-07-07T09:52:58.099Z,6.22
2023-07-07T09:55:33.776Z,8.38
2023-07-07T09:58:04.532Z,14.75
2023-07-07T10:00:44.948Z,12.30
2023-07-07T10:03:33.389Z,15.30
2023-07-07T10:08:32.903Z,7.72
2023-07-07T10:13:54.382Z,8.30
2023-07-07T10:16:37.724Z,12.85
2023-07-07T10:19:12.782Z,9.57
2023-07-07T10:21:40.690Z,16.80
2023-07-07T10:24:12.299Z,19.77
2023-07-07T10:26:48.528Z,26.10
2023-07-07T10:29:20.102Z,15.57
2023-07-07T10:31:48.109Z,22.63
2023-07-07T10:34:25.220Z,23.05
2023-07-07T10:36:58.112Z,9.13
2023-07-07T10:39:28.377Z,5.35
2023-07-07T10:41:56.287Z,7.20
2023-07-07T10:44:28.611Z,7.22
2023-07-07T10:46:59.489Z,11.40
2023-07-07T10:49:28.363Z,13.43
2023-07-07T10:52:18.535Z,8.23
2023-07-07T10:54:59.697Z,19.48
2023-07-07T10:57:53.318Z,18.63
2023-07-07T11:00:31.037Z,20.15
2023-07-07T11:03:22.037Z,16.95
2023-07-07T11:06:26.278Z,15.23
2023-07-07T11:09:13.069Z,14.98
2023-07-07T11:12:01.781Z,15.45
2023-07-07T11:14:51.228Z,9.00
2023-07-07T11:17:58.546Z,8.60
2023-07-07T11:20:29.496Z,7.60
2023-07-07T11:23:21.341Z,22.40
2023-07-07T11:25:59.047Z,26.42
2023-07-07T11:28:54.592Z,18.45
2023-07-07T11:31:40.085Z,11.02
2023-07-07T11:34:34.543Z,13.30
2023-07-07T11:37:23.479Z,19.42
2023-07-07T11:40:06.135Z,15.00
2023-07-07T11:43:01.372Z,8.98
2023-07-07T11:45:56.900Z,10.70
2023-07-07T11:48:41.398Z,12.73
2023-07-07T11:51:20.962Z,22.90
2023-07-07T11:54:00.764Z,11.27
2023-07-07T11:57:12.884Z,18.20
2023-07-07T11:59:52.977Z,14.30
2023-07-07T12:02:27.926Z,5.53
2023-07-07T12:04:58.833Z,7.90
2023-07-07T12:07:49.364Z,5.38
2023-07-07T12:10:24.204Z,5.30
2023-07-07T12:13:07.301Z,6.55
2023-07-07T12:15:41.428Z,4.82
2023-07-07T12:18:34.157Z,4.15
2023-07-07T12:21:14.631Z,6.22
2023-07-07T12:24:08.270Z,3.25
2023-07-07T12:26:43.561Z,4.60
2023-07-07T12:29:18.142Z,5.93
2023-07-07T12:31:48.457Z,3.70
2023-07-07T12:34:47.986Z,4.85
2023-07-07T12:37:23.056Z,4.65
2023-07-07T12:40:10.569Z,4.55
2023-07-07T12:42:43.534Z,5.32
2023-07-07T12:45:34.471Z,4.00
2023-07-07T12:48:08.124Z,7.15
2023-07-07T12:50:40.515Z,6.18
2023-07-07T12:53:18.811Z,6.32
2023-07-07T12:56:08.802Z,3.88
2023-07-07T12:58:51.632Z,12.38
2023-07-07T13:01:19.687Z,6.50
2023-07-07T13:04:06.866Z,10.48
2023-07-07T13:06:38.419Z,6.32
2023-07-07T13:09:19.635Z,15.02
2023-07-07T13:11:56.526Z,30.90
2023-07-07T13:14:44.880Z,15.82
2023-07-07T13:17:28.816Z,11.05
2023-07-07T13:20:03.310Z,9.02
2023-07-07T13:22:39.285Z,6.72
2023-07-07T13:25:37.725Z,9.40
2023-07-07T13:28:13.325Z,9.52
2023-07-07T13:30:56.122Z,10.68
2023-07-07T13:33:28.535Z,6.35
2023-07-07T13:36:01.573Z,11.40
2023-07-07T13:38:36.041Z,13.95
2023-07-07T13:41:10.220Z,24.70
2023-07-07T13:43:45.727Z,8.77
2023-07-07T13:46:20.813Z,10.82
2023-07-07T13:49:37.055Z,13.98
2023-07-07T13:52:22.667Z,8.63
2023-07-07T13:54:51.501Z,11.15
2023-07-07T13:57:29.387Z,7.70
2023-07-07T13:59:58.195Z,35.70
2023-07-07T14:02:26.803Z,23.83
2023-07-07T14:05:07.651Z,15.38
2023-07-07T14:07:39.838Z,19.15
2023-07-07T14:10:31.584Z,24.55
2023-07-07T14:13:00.266Z,40.65
2023-07-07T14:15:36.804Z,35.10
2023-07-07T14:20:46.718Z,29.70
2023-07-07T14:23:17.316Z,20.85
2023-07-07T14:25:48.488Z,34.00
2023-07-07T14:28:19.577Z,14.60
2023-07-07T14:30:55.446Z,16.98
2023-07-07T14:33:28.011Z,9.50
2023-07-07T14:35:58.011Z,7.35
2023-07-07T14:38:36.390Z,6.60
2023-07-07T14:41:17.857Z,8.70
2023-07-07T14:43:45.806Z,4.93
2023-07-07T14:46:21.508Z,4.13
2023-07-07T14:48:57.550Z,5.68
2023-07-07T14:51:33.845Z,4.80
2023-07-07T14:54:03.989Z,4.68
2023-07-07T14:56:47.747Z,7.10
2023-07-07T14:59:22.132Z,5.32
2023-07-07T15:01:58.350Z,7.28
2023-07-07T15:04:34.585Z,5.18
2023-07-07T15:07:04.494Z,5.55
2023-07-07T15:09:32.287Z,5.80
2023-07-07T15:12:00.950Z,7.72
2023-07-07T15:14:28.597Z,9.90
2023-07-07T15:16:56.578Z,7.55
2023-07-07T15:19:24.509Z,5.32
2023-07-07T15:21:52.392Z,5.55
2023-07-07T15:24:20.411Z,7.97
2023-07-07T15:26:49.279Z,6.90
2023-07-07T15:29:23.393Z,3.95
2023-07-07T15:31:51.149Z,3.47
2023-07-07T15:34:20.915Z,5.55
2023-07-07T15:36:48.654Z,7.47
2023-07-07T15:39:16.508Z,6.40
2023-07-07T15:41:44.538Z,4.63
2023-07-07T15:44:12.790Z,4.18
2023-07-07T15:46:48.305Z,4.03
2023-07-07T15:49:19.736Z,4.85
2023-07-07T15:51:47.997Z,6.25
2023-07-07T15:54:16.131Z,5.20
2023-07-07T15:56:46.507Z,4.25
2023-07-07T15:59:23.193Z,5.32
2023-07-07T16:01:56.331Z,3.80
2023-07-07T16:04:24.551Z,6.55
2023-07-07T16:06:56.520Z,4.80
2023-07-07T16:09:29.050Z,4.88
2023-07-07T16:11:58.935Z,5.70
2023-07-07T16:14:29.906Z,6.13
2023-07-07T16:16:59.249Z,4.40
2023-07-07T16:19:28.998Z,4.93
2023-07-07T16:22:06.288Z,7.38
2023-07-07T16:24:44.771Z,4.55
2023-07-07T16:27:20.772Z,5.70
2023-07-07T16:29:53.235Z,8.77
2023-07-07T16:32:24.031Z,8.60
2023-07-07T16:34:52.404Z,8.55
2023-07-07T16:37:27.418Z,5.10
2023-07-07T16:39:55.548Z,6.95
2023-07-07T16:42:26.200Z,4.90
2023-07-07T16:44:56.133Z,6.63
2023-07-07T16:47:24.130Z,5.95
2023-07-07T16:49:52.132Z,9.88
2023-07-07T16:52:22.185Z,8.10
2023-07-07T16:54:50.160Z,8.52
2023-07-07T16:57:19.886Z,5.80
2023-07-07T16:59:47.971Z,11.25
2023-07-07T17:02:15.604Z,7.35
2023-07-07T17:04:43.468Z,9.55
2023-07-07T17:07:11.611Z,4.68
2023-07-07T17:09:39.557Z,7.30
2023-07-07T17:12:12.571Z,5.75
2023-07-07T17:14:40.564Z,6.60
2023-07-07T17:17:12.893Z,8.50
2023-07-07T17:19:40.838Z,9.10
2023-07-07T17:22:08.646Z,10.05
2023-07-07T17:24:37.213Z,7.10
2023-07-07T17:27:05.635Z,8.18
2023-07-07T17:29:34.243Z,9.63
2023-07-07T17:32:02.171Z,9.40
2023-07-07T17:34:30.019Z,9.20
2023-07-07T17:36:57.784Z,8.35
2023-07-07T17:39:26.123Z,9.05
2023-07-07T17:41:53.866Z,8.55
2023-07-07T17:44:21.823Z,7.35
2023-07-07T17:46:49.866Z,11.88
2023-07-07T17:49:21.964Z,12.15
2023-07-07T17:51:50.540Z,12.07
2023-07-07T17:54:18.430Z,16.63
2023-07-07T17:56:46.174Z,16.77
2023-07-07T17:59:20.440Z,18.23
2023-07-07T18:01:49.796Z,12.25
2023-07-07T18:04:17.886Z,15.32
2023-07-07T18:06:51.863Z,14.70
2023-07-07T18:09:21.101Z,12.90
2023-07-07T18:11:51.294Z,13.48
2023-07-07T18:14:21.074Z,14.27
2023-07-07T18:17:00.355Z,9.88
2023-07-07T18:19:57.988Z,9.52
2023-07-07T18:22:27.207Z,10.60
2023-07-07T18:24:55.441Z,13.32
2023-07-07T18:27:23.275Z,7.53
2023-07-07T18:29:51.725Z,12.77
2023-07-07T18:32:19.721Z,10.50
2023-07-07T18:34:47.523Z,11.52
2023-07-07T18:37:16.875Z,12.45
2023-07-07T18:39:48.302Z,13.40
2023-07-07T18:42:16.038Z,11.50
2023-07-07T18:44:43.850Z,12.68
2023-07-07T18:47:16.111Z,15.63
2023-07-07T18:49:46.857Z,10.75
2023-07-07T18:52:15.549Z,12.35
2023-07-07T18:54:43.461Z,12.05
2023-07-07T18:57:11.594Z,14.48
2023-07-07T18:59:39.629Z,16.27
2023-07-07T19:02:15.987Z,13.27
2023-07-07T19:04:44.481Z,9.85
2023-07-07T19:07:14.100Z,14.82
2023-07-07T19:09:43.267Z,11.75
2023-07-07T19:12:14.296Z,11.90
2023-07-07T19:14:42.139Z,9.88
2023-07-07T19:17:13.402Z,11.45
2023-07-07T19:19:41.185Z,10.48
2023-07-07T19:22:13.789Z,11.77
2023-07-07T19:24:41.544Z,10.40
2023-07-07T19:27:12.232Z,14.60
2023-07-07T19:29:40.159Z,11.45
2023-07-07T19:32:19.281Z,6.30
2023-07-07T19:34:47.229Z,8.32
2023-07-07T19:37:15.115Z,9.10
2023-07-07T19:39:44.015Z,9.23
2023-07-07T19:42:13.215Z,9.13
2023-07-07T19:44:42.552Z,9.68
2023-07-07T19:47:14.847Z,9.18
2023-07-07T19:49:42.977Z,8.88
2023-07-07T19:52:16.744Z,11.63
2023-07-07T19:54:45.323Z,9.50
2023-07-07T19:57:24.095Z,14.45
2023-07-07T19:59:51.968Z,10.75
2023-07-07T20:02:21.672Z,12.00
2023-07-07T20:04:49.957Z,12.35
2023-07-07T20:07:17.796Z,8.77
2023-07-07T20:09:45.682Z,12.05
2023-07-07T20:12:16.145Z,10.40
2023-07-07T20:14:43.944Z,11.65
2023-07-07T20:17:13.698Z,9.13
2023-07-07T20:19:45.512Z,12.50
2023-07-07T20:22:14.483Z,10.68
2023-07-07T20:24:42.977Z,7.93
2023-07-07T20:27:12.805Z,13.13
2023-07-07T20:29:41.024Z,11.95
2023-07-07T20:32:15.177Z,9.05
2023-07-07T20:34:43.047Z,9.30
2023-07-07T20:37:15.552Z,10.50
2023-07-07T20:39:44.708Z,9.55
2023-07-07T20:42:14.454Z,8.50
2023-07-07T20:44:43.621Z,10.32
2023-07-07T20:47:13.522Z,9.25
2023-07-07T20:49:42.166Z,8.82
2023-07-07T20:52:14.120Z,8.32
2023-07-07T20:54:41.904Z,9.70
2023-07-07T20:57:19.092Z,11.18
2023-07-07T20:59:48.344Z,9.32
2023-07-07T21:02:17.216Z,9.55
2023-07-07T21:04:45.192Z,8.40
2023-07-07T21:07:14.229Z,11.73
2023-07-07T21:09:42.735Z,11.30
2023-07-07T21:12:11.148Z,11.25
2023-07-07T21:14:39.064Z,11.70
2023-07-07T21:17:06.971Z,7.75
2023-07-07T21:19:34.937Z,8.10
2023-07-07T21:22:02.827Z,7.75
2023-07-07T21:24:30.659Z,8.93
2023-07-07T21:26:58.488Z,8.02
2023-07-07T21:29:26.280Z,10.00
2023-07-07T21:31:54.124Z,9.57
2023-07-07T21:34:21.990Z,9.70
2023-07-07T21:36:49.752Z,10.73
2023-07-07T21:39:29.614Z,10.60
2023-07-07T21:44:31.100Z,9.73
2023-07-07T21:46:59.205Z,9.02
2023-07-07T21:49:27.998Z,7.47
2023-07-07T21:51:56.438Z,8.77
2023-07-07T21:54:24.304Z,7.80
2023-07-07T21:56:52.534Z,9.77
2023-07-07T21:59:22.813Z,11.35
2023-07-07T22:01:54.252Z,9.98
2023-07-07T22:04:27.839Z,8.10
2023-07-07T22:06:55.694Z,7.15
2023-07-07T22:09:25.875Z,10.27
2023-07-07T22:11:54.095Z,9.50
2023-07-07T22:14:22.379Z,10.60
2023-07-07T22:16:50.222Z,12.38
2023-07-07T22:19:20.185Z,12.15
2023-07-07T22:21:48.151Z,11.93
2023-07-07T22:24:16.197Z,11.88
2023-07-07T22:26:43.962Z,9.65
2023-07-07T22:29:13.789Z,10.30
2023-07-07T22:31:42.008Z,10.23
2023-07-07T22:34:09.904Z,9.40
2023-07-07T22:36:41.037Z,10.95
2023-07-07T22:39:12.862Z,9.65
2023-07-07T22:41:40.623Z,9.98
2023-07-07T22:44:09.243Z,8.32
2023-07-07T22:46:42.304Z,9.35
2023-07-07T22:49:14.530Z,9.65
2023-07-07T22:51:44.427Z,7.00
2023-07-07T22:54:12.309Z,8.25
2023-07-07T22:56:41.168Z,6.80
2023-07-07T22:59:21.337Z,8.05
2023-07-07T23:01:49.528Z,8.05
2023-07-07T23:04:17.800Z,6.18
2023-07-07T23:06:47.482Z,5.88
2023-07-07T23:09:47.788Z,7.15
2023-07-07T23:12:21.636Z,7.00
2023-07-07T23:14:50.819Z,6.85
2023-07-07T23:17:25.051Z,7.70
2023-07-07T23:19:57.137Z,6.10
2023-07-07T23:22:32.044Z,4.65
2023-07-07T23:25:01.595Z,6.63
2023-07-07T23:27:35.068Z,6.18
2023-07-07T23:30:17.517Z,5.35
2023-07-07T23:32:47.111Z,6.72
2023-07-07T23:35:15.961Z,5.28
2023-07-07T23:37:44.746Z,6.95
2023-07-07T23:40:34.323Z,7.55
2023-07-07T23:43:02.394Z,6.57
2023-07-07T23:45:30.697Z,6.07
2023-07-07T23:48:01.482Z,9.48
2023-07-07T23:50:34.523Z,7.32
2023-07-07T23:53:02.396Z,8.88
2023-07-07T23:55:32.342Z,5.25
2023-07-07T23:58:00.821Z,5.68
